Anzoras — EAZC — position and weather

sailwx.info

Track history (hours):
 
Tides and Currents Weather Stations Pressure Air Temp Water Temp Dewpoint Dewpoint Depression Visibility Wind Speed Wind Dir Waves Ship Positions

Anzoras

Last reported at 2017-May-24 15:44 UTC. Time now 2017-May-24 21:25 UTC.
Position N 43°44' W 006°02'.

Length 100 m; draft 4.3 m.

Type: Cargo ship. MMSI: 224376000.

Date/timePositionNaut miles runAvg speedWind from/ knotsBaromVisibWave heightAir tempDewpointWater temp
2017-May-24 15:44N 43°44' W 006°02'7 0.2
2017-May-22 18:11N 43°37' W 005°58'1 2.1
2017-May-22 17:55N 43°38' W 005°58'2 4.9
2017-May-22 17:29N 43°40' W 005°58'24610.9
2017-May-21 18:58N 47°46' W 006°15'2210.8
2017-May-21 16:54N 48°08' W 006°15'13311.0
2017-May-21 04:46N 50°21' W 006°02'209 9.8
2017-May-20 07:29N 53°34' W 003°53'611.6
2017-May-20 07:00N 53°34' W 003°44'611.5
2017-May-20 06:30N 53°34' W 003°34'611.4
2017-May-20 06:00N 53°33' W 003°24'510.9
2017-May-20 05:30N 53°32' W 003°15'510.0
2017-May-20 05:00N 53°31' W 003°07'510.3
2017-May-20 04:30N 53°27' W 003°02'5 9.0
2017-May-20 04:00N 53°23' W 002°60'4 7.4
2017-May-20 03:29N 53°19' W 002°57'0 0.5
2017-May-20 03:00N 53°19' W 002°57'3 5.1
2017-May-20 02:30N 53°17' W 002°54'2 4.7
2017-May-20 02:00N 53°17' W 002°50'3 6.2
2017-May-20 01:30N 53°19' W 002°45'2 2.9
2017-May-20 00:59N 53°20' W 002°45'0 0.0
2017-May-19 15:23N 53°20' W 002°45'0 0.0
2017-May-19 14:53N 53°20' W 002°45'0 0.0
2017-May-19 13:59N 53°20' W 002°45'0 0.0
2017-May-19 13:23N 53°20' W 002°45'0 0.0
2017-May-19 12:50N 53°20' W 002°45'0 0.0
2017-May-19 12:29N 53°20' W 002°45'0 0.0
2017-May-19 11:59N 53°20' W 002°45'0 0.0
2017-May-19 11:29N 53°20' W 002°45'0 0.0
2017-May-19 10:59N 53°20' W 002°45'0 0.0
2017-May-19 10:29N 53°20' W 002°45'0 0.0
2017-May-19 09:59N 53°20' W 002°45'0 0.0
2017-May-19 09:29N 53°20' W 002°45'0 0.0
2017-May-19 08:56N 53°20' W 002°45'0 0.0
2017-May-19 08:29N 53°20' W 002°45'0 0.0
2017-May-19 07:20N 53°20' W 002°45'0 0.0
2017-May-19 06:56N 53°20' W 002°45'0 0.0
2017-May-19 06:29N 53°20' W 002°45'0 0.0
2017-May-19 05:59N 53°20' W 002°45'0 0.0
2017-May-19 05:29N 53°20' W 002°45'0 0.0
2017-May-19 04:59N 53°20' W 002°45'0 0.0
2017-May-19 04:26N 53°20' W 002°45'0 0.0
2017-May-19 03:59N 53°20' W 002°45'0 0.0
2017-May-19 03:29N 53°20' W 002°45'0 0.0
2017-May-19 02:59N 53°20' W 002°45'0 0.0
2017-May-19 02:29N 53°20' W 002°45'0 0.0
2017-May-19 01:59N 53°20' W 002°45'0 0.0
2017-May-19 01:26N 53°20' W 002°45'0 0.0
2017-May-19 00:59N 53°20' W 002°45'0 0.0
2017-May-19 00:29N 53°20' W 002°45'0 0.0
2017-May-18 23:59N 53°20' W 002°45'0 0.0
2017-May-18 23:29N 53°20' W 002°45'0 0.0
2017-May-18 22:59N 53°20' W 002°45'0 0.0
2017-May-18 22:29N 53°20' W 002°45'0 0.0
2017-May-18 21:53N 53°20' W 002°45'0 0.0
2017-May-18 21:26N 53°20' W 002°45'0 0.0
2017-May-18 20:59N 53°20' W 002°45'0 0.0
2017-May-18 20:29N 53°20' W 002°45'0 0.0
2017-May-18 19:59N 53°20' W 002°45'0 0.0
2017-May-18 19:29N 53°20' W 002°45'0 0.0
2017-May-18 18:50N 53°20' W 002°45'0 0.0
2017-May-18 18:29N 53°20' W 002°45'0 0.0
2017-May-18 17:59N 53°20' W 002°45'0 0.0
2017-May-18 17:26N 53°20' W 002°45'0 0.0
2017-May-18 16:53N 53°20' W 002°45'0 0.0
2017-May-18 16:29N 53°20' W 002°45'0 0.0
2017-May-18 15:53N 53°20' W 002°45'0 0.0
2017-May-18 15:29N 53°20' W 002°45'0 0.0
2017-May-18 14:50N 53°20' W 002°45'0 0.0
2017-May-18 13:47N 53°20' W 002°45'0 0.0
2017-May-18 13:26N 53°20' W 002°45'0 0.0
2017-May-18 12:56N 53°20' W 002°45'0 0.0
2017-May-18 11:38N 53°20' W 002°45'0 0.0
2017-May-18 10:41N 53°20' W 002°45'0 0.0
2017-May-18 10:26N 53°20' W 002°45'0 0.0
2017-May-18 09:53N 53°20' W 002°45'0 0.0
2017-May-18 09:26N 53°20' W 002°45'0 0.0
2017-May-18 08:59N 53°20' W 002°45'0 0.0
2017-May-18 08:23N 53°20' W 002°45'0 0.0
2017-May-18 07:50N 53°20' W 002°45'0 0.0
2017-May-18 07:29N 53°20' W 002°45'0 0.0
2017-May-18 06:59N 53°20' W 002°45'0 0.0
2017-May-18 06:29N 53°20' W 002°45'0 0.2
2017-May-18 06:00N 53°20' W 002°45'1 2.6
2017-May-18 05:30N 53°19' W 002°45'3 5.6
2017-May-18 05:00N 53°17' W 002°49'2 4.5
2017-May-18 04:30N 53°17' W 002°53'2 4.9
2017-May-18 04:00N 53°19' W 002°56'1 1.9
2017-May-18 03:30N 53°19' W 002°57'1 2.6
2017-May-18 03:00N 53°21' W 002°58'4 7.1
2017-May-18 02:30N 53°24' W 003°00'4 8.1
2017-May-18 02:00N 53°28' W 003°03'5 9.7
2017-May-18 01:30N 53°31' W 003°08'510.7
2017-May-18 01:00N 53°31' W 003°17'3 6.3
2017-May-18 00:30N 53°31' W 003°22'2 4.2
2017-May-18 00:00N 53°31' W 003°26'4 8.0
2017-May-17 23:30N 53°30' W 003°32'5 9.3
2017-May-17 23:00N 53°31' W 003°40'  
Track history (hours):
 
Tides and Currents Weather Stations Pressure Air Temp Water Temp Dewpoint Dewpoint Depression Visibility Wind Speed Wind Dir Waves Ship Positions

Anzoras

Last reported at 2017-May-24 15:44 UTC. Time now 2017-May-24 21:25 UTC.
Position N 43°44' W 006°02'.

Length 100 m; draft 4.3 m.

Type: Cargo ship. MMSI: 224376000.

Date/timePositionNaut miles runAvg speedWind from/ knotsBaromVisibWave heightAir tempDewpointWater temp
2017-May-24 15:44N 43°44' W 006°02'7 0.2
2017-May-22 18:11N 43°37' W 005°58'1 2.1
2017-May-22 17:55N 43°38' W 005°58'2 4.9
2017-May-22 17:29N 43°40' W 005°58'24610.9
2017-May-21 18:58N 47°46' W 006°15'2210.8
2017-May-21 16:54N 48°08' W 006°15'13311.0
2017-May-21 04:46N 50°21' W 006°02'209 9.8
2017-May-20 07:29N 53°34' W 003°53'611.6
2017-May-20 07:00N 53°34' W 003°44'611.5
2017-May-20 06:30N 53°34' W 003°34'611.4
2017-May-20 06:00N 53°33' W 003°24'510.9
2017-May-20 05:30N 53°32' W 003°15'510.0
2017-May-20 05:00N 53°31' W 003°07'510.3
2017-May-20 04:30N 53°27' W 003°02'5 9.0
2017-May-20 04:00N 53°23' W 002°60'4 7.4
2017-May-20 03:29N 53°19' W 002°57'0 0.5
2017-May-20 03:00N 53°19' W 002°57'3 5.1
2017-May-20 02:30N 53°17' W 002°54'2 4.7
2017-May-20 02:00N 53°17' W 002°50'3 6.2
2017-May-20 01:30N 53°19' W 002°45'2 2.9
2017-May-20 00:59N 53°20' W 002°45'0 0.0
2017-May-19 15:23N 53°20' W 002°45'0 0.0
2017-May-19 14:53N 53°20' W 002°45'0 0.0
2017-May-19 13:59N 53°20' W 002°45'0 0.0
2017-May-19 13:23N 53°20' W 002°45'0 0.0
2017-May-19 12:50N 53°20' W 002°45'0 0.0
2017-May-19 12:29N 53°20' W 002°45'0 0.0
2017-May-19 11:59N 53°20' W 002°45'0 0.0
2017-May-19 11:29N 53°20' W 002°45'0 0.0
2017-May-19 10:59N 53°20' W 002°45'0 0.0
2017-May-19 10:29N 53°20' W 002°45'0 0.0
2017-May-19 09:59N 53°20' W 002°45'0 0.0
2017-May-19 09:29N 53°20' W 002°45'0 0.0
2017-May-19 08:56N 53°20' W 002°45'0 0.0
2017-May-19 08:29N 53°20' W 002°45'0 0.0
2017-May-19 07:20N 53°20' W 002°45'0 0.0
2017-May-19 06:56N 53°20' W 002°45'0 0.0
2017-May-19 06:29N 53°20' W 002°45'0 0.0
2017-May-19 05:59N 53°20' W 002°45'0 0.0
2017-May-19 05:29N 53°20' W 002°45'0 0.0
2017-May-19 04:59N 53°20' W 002°45'0 0.0
2017-May-19 04:26N 53°20' W 002°45'0 0.0
2017-May-19 03:59N 53°20' W 002°45'0 0.0
2017-May-19 03:29N 53°20' W 002°45'0 0.0
2017-May-19 02:59N 53°20' W 002°45'0 0.0
2017-May-19 02:29N 53°20' W 002°45'0 0.0
2017-May-19 01:59N 53°20' W 002°45'0 0.0
2017-May-19 01:26N 53°20' W 002°45'0 0.0
2017-May-19 00:59N 53°20' W 002°45'0 0.0
2017-May-19 00:29N 53°20' W 002°45'0 0.0
2017-May-18 23:59N 53°20' W 002°45'0 0.0
2017-May-18 23:29N 53°20' W 002°45'0 0.0
2017-May-18 22:59N 53°20' W 002°45'0 0.0
2017-May-18 22:29N 53°20' W 002°45'0 0.0
2017-May-18 21:53N 53°20' W 002°45'0 0.0
2017-May-18 21:26N 53°20' W 002°45'0 0.0
2017-May-18 20:59N 53°20' W 002°45'0 0.0
2017-May-18 20:29N 53°20' W 002°45'0 0.0
2017-May-18 19:59N 53°20' W 002°45'0 0.0
2017-May-18 19:29N 53°20' W 002°45'0 0.0
2017-May-18 18:50N 53°20' W 002°45'0 0.0
2017-May-18 18:29N 53°20' W 002°45'0 0.0
2017-May-18 17:59N 53°20' W 002°45'0 0.0
2017-May-18 17:26N 53°20' W 002°45'0 0.0
2017-May-18 16:53N 53°20' W 002°45'0 0.0
2017-May-18 16:29N 53°20' W 002°45'0 0.0
2017-May-18 15:53N 53°20' W 002°45'0 0.0
2017-May-18 15:29N 53°20' W 002°45'0 0.0
2017-May-18 14:50N 53°20' W 002°45'0 0.0
2017-May-18 13:47N 53°20' W 002°45'0 0.0
2017-May-18 13:26N 53°20' W 002°45'0 0.0
2017-May-18 12:56N 53°20' W 002°45'0 0.0
2017-May-18 11:38N 53°20' W 002°45'0 0.0
2017-May-18 10:41N 53°20' W 002°45'0 0.0
2017-May-18 10:26N 53°20' W 002°45'0 0.0
2017-May-18 09:53N 53°20' W 002°45'0 0.0
2017-May-18 09:26N 53°20' W 002°45'0 0.0
2017-May-18 08:59N 53°20' W 002°45'0 0.0
2017-May-18 08:23N 53°20' W 002°45'0 0.0
2017-May-18 07:50N 53°20' W 002°45'0 0.0
2017-May-18 07:29N 53°20' W 002°45'0 0.0
2017-May-18 06:59N 53°20' W 002°45'0 0.0
2017-May-18 06:29N 53°20' W 002°45'0 0.2
2017-May-18 06:00N 53°20' W 002°45'1 2.6
2017-May-18 05:30N 53°19' W 002°45'3 5.6
2017-May-18 05:00N 53°17' W 002°49'2 4.5
2017-May-18 04:30N 53°17' W 002°53'2 4.9
2017-May-18 04:00N 53°19' W 002°56'1 1.9
2017-May-18 03:30N 53°19' W 002°57'1 2.6
2017-May-18 03:00N 53°21' W 002°58'4 7.1
2017-May-18 02:30N 53°24' W 003°00'4 8.1
2017-May-18 02:00N 53°28' W 003°03'5 9.7
2017-May-18 01:30N 53°31' W 003°08'510.7
2017-May-18 01:00N 53°31' W 003°17'3 6.3
2017-May-18 00:30N 53°31' W 003°22'2 4.2
2017-May-18 00:00N 53°31' W 003°26'4 8.0
2017-May-17 23:30N 53°30' W 003°32'5 9.3
2017-May-17 23:00N 53°31' W 003°40'  

Dump ship's entire track history